sensor_id;sensor_type;location;lat;lon;timestamp;pressure;altitude;pressure_sealevel;temperature;humidity
40954;BME280;26686;50.130;8.710;2023-08-12T00:02:26;100345.53;;;23.93;65.54
40954;BME280;26686;50.130;8.710;2023-08-12T00:07:27;100336.13;;;23.89;66.02
40954;BME280;26686;50.130;8.710;2023-08-12T00:12:31;100325.03;;;23.84;66.42
40954;BME280;26686;50.130;8.710;2023-08-12T00:17:34;100311.19;;;23.79;66.50
40954;BME280;26686;50.130;8.710;2023-08-12T00:22:36;100312.25;;;23.78;66.93
40954;BME280;26686;50.130;8.710;2023-08-12T00:27:38;100316.03;;;23.77;67.15
40954;BME280;26686;50.130;8.710;2023-08-12T00:32:40;100314.16;;;23.71;67.10
40954;BME280;26686;50.130;8.710;2023-08-12T00:37:42;100306.19;;;23.69;67.35
40954;BME280;26686;50.130;8.710;2023-08-12T00:42:43;100293.03;;;23.66;67.46
40954;BME280;26686;50.130;8.710;2023-08-12T00:47:45;100281.94;;;23.61;67.92
40954;BME280;26686;50.130;8.710;2023-08-12T00:52:48;100279.84;;;23.56;68.13
40954;BME280;26686;50.130;8.710;2023-08-12T00:57:50;100276.94;;;23.51;68.52
40954;BME280;26686;50.130;8.710;2023-08-12T01:02:53;100271.28;;;23.46;68.79
40954;BME280;26686;50.130;8.710;2023-08-12T01:07:55;100268.97;;;23.43;69.06
40954;BME280;26686;50.130;8.710;2023-08-12T01:18:04;100262.28;;;23.39;69.00
40954;BME280;26686;50.130;8.710;2023-08-12T01:23:12;100253.94;;;23.34;69.63
40954;BME280;26686;50.130;8.710;2023-08-12T01:28:14;100246.81;;;23.33;69.60
40954;BME280;26686;50.130;8.710;2023-08-12T01:33:39;100235.34;;;23.30;69.82
40954;BME280;26686;50.130;8.710;2023-08-12T01:38:44;100235.09;;;23.25;69.78
40954;BME280;26686;50.130;8.710;2023-08-12T01:43:47;100235.53;;;23.22;69.97
40954;BME280;26686;50.130;8.710;2023-08-12T01:48:48;100241.78;;;23.16;69.40
40954;BME280;26686;50.130;8.710;2023-08-12T01:53:50;100236.75;;;23.06;70.36
40954;BME280;26686;50.130;8.710;2023-08-12T01:58:52;100251.13;;;23.00;70.99
40954;BME280;26686;50.130;8.710;2023-08-12T02:03:53;100249.25;;;23.01;71.02
40954;BME280;26686;50.130;8.710;2023-08-12T02:08:56;100243.81;;;23.01;70.88
40954;BME280;26686;50.130;8.710;2023-08-12T02:13:57;100242.78;;;23.02;70.79
40954;BME280;26686;50.130;8.710;2023-08-12T02:18:59;100241.72;;;23.03;71.11
40954;BME280;26686;50.130;8.710;2023-08-12T02:24:01;100234.00;;;23.00;71.00
40954;BME280;26686;50.130;8.710;2023-08-12T02:29:02;100234.63;;;22.95;71.36
40954;BME280;26686;50.130;8.710;2023-08-12T02:34:04;100249.25;;;23.01;72.01
40954;BME280;26686;50.130;8.710;2023-08-12T02:39:05;100245.91;;;22.99;72.47
40954;BME280;26686;50.130;8.710;2023-08-12T02:44:07;100253.00;;;23.00;73.92
40954;BME280;26686;50.130;8.710;2023-08-12T02:49:08;100265.94;;;22.98;73.37
40954;BME280;26686;50.130;8.710;2023-08-12T02:54:10;100286.78;;;22.90;73.90
40954;BME280;26686;50.130;8.710;2023-08-12T02:59:12;100305.59;;;22.92;75.60
40954;BME280;26686;50.130;8.710;2023-08-12T03:04:13;100297.25;;;22.87;77.41
40954;BME280;26686;50.130;8.710;2023-08-12T03:09:15;100285.53;;;22.86;80.25
40954;BME280;26686;50.130;8.710;2023-08-12T03:14:18;100275.50;;;22.80;79.80
40954;BME280;26686;50.130;8.710;2023-08-12T03:19:19;100276.97;;;22.76;80.91
40954;BME280;26686;50.130;8.710;2023-08-12T03:24:20;100278.81;;;22.69;80.74
40954;BME280;26686;50.130;8.710;2023-08-12T03:29:22;100289.41;;;22.64;81.29
40954;BME280;26686;50.130;8.710;2023-08-12T03:34:24;100280.63;;;22.55;81.94
40954;BME280;26686;50.130;8.710;2023-08-12T03:39:25;100291.69;;;22.53;81.81
40954;BME280;26686;50.130;8.710;2023-08-12T03:44:27;100284.16;;;22.55;83.70
40954;BME280;26686;50.130;8.710;2023-08-12T03:49:28;100276.03;;;22.55;84.32
40954;BME280;26686;50.130;8.710;2023-08-12T03:54:30;100273.94;;;22.57;85.41
40954;BME280;26686;50.130;8.710;2023-08-12T03:59:31;100262.25;;;22.57;85.81
40954;BME280;26686;50.130;8.710;2023-08-12T04:04:33;100244.09;;;22.51;86.34
40954;BME280;26686;50.130;8.710;2023-08-12T04:09:34;100244.09;;;22.51;87.07
40954;BME280;26686;50.130;8.710;2023-08-12T04:14:36;100254.88;;;22.44;86.73
40954;BME280;26686;50.130;8.710;2023-08-12T04:19:38;100265.13;;;22.42;85.78
40954;BME280;26686;50.130;8.710;2023-08-12T04:24:40;100238.81;;;22.36;86.11
40954;BME280;26686;50.130;8.710;2023-08-12T04:29:42;100199.81;;;22.37;85.77
40954;BME280;26686;50.130;8.710;2023-08-12T04:34:45;100234.81;;;22.32;86.69
40954;BME280;26686;50.130;8.710;2023-08-12T04:39:47;100235.59;;;22.25;86.29
40954;BME280;26686;50.130;8.710;2023-08-12T04:44:48;100256.00;;;22.21;87.12
40954;BME280;26686;50.130;8.710;2023-08-12T04:49:50;100240.78;;;22.20;88.18
40954;BME280;26686;50.130;8.710;2023-08-12T04:54:54;100211.59;;;22.22;88.58
40954;BME280;26686;50.130;8.710;2023-08-12T04:59:56;100216.41;;;22.20;89.05
40954;BME280;26686;50.130;8.710;2023-08-12T05:04:58;100228.00;;;22.14;88.70
40954;BME280;26686;50.130;8.710;2023-08-12T05:09:59;100210.50;;;22.10;89.69
40954;BME280;26686;50.130;8.710;2023-08-12T05:15:01;100222.97;;;22.04;90.49
40954;BME280;26686;50.130;8.710;2023-08-12T05:20:03;100230.69;;;22.07;90.69
40954;BME280;26686;50.130;8.710;2023-08-12T05:25:05;100233.41;;;22.07;89.41
40954;BME280;26686;50.130;8.710;2023-08-12T05:30:07;100217.50;;;21.98;90.44
40954;BME280;26686;50.130;8.710;2023-08-12T05:35:09;100227.06;;;21.94;90.22
40954;BME280;26686;50.130;8.710;2023-08-12T05:40:10;100234.72;;;21.83;90.40
40954;BME280;26686;50.130;8.710;2023-08-12T05:45:12;100224.69;;;21.77;91.00
40954;BME280;26686;50.130;8.710;2023-08-12T05:50:14;100229.44;;;21.75;90.27
40954;BME280;26686;50.130;8.710;2023-08-12T05:55:16;100219.84;;;21.73;89.72
40954;BME280;26686;50.130;8.710;2023-08-12T06:00:17;100227.38;;;21.77;90.64
40954;BME280;26686;50.130;8.710;2023-08-12T06:05:19;100241.94;;;21.76;90.09
40954;BME280;26686;50.130;8.710;2023-08-12T06:10:21;100235.50;;;21.77;90.33
40954;BME280;26686;50.130;8.710;2023-08-12T06:15:22;100240.81;;;21.92;90.11
40954;BME280;26686;50.130;8.710;2023-08-12T06:20:24;100238.41;;;22.04;88.69
40954;BME280;26686;50.130;8.710;2023-08-12T06:25:26;100248.47;;;22.17;88.62
40954;BME280;26686;50.130;8.710;2023-08-12T06:30:27;100251.09;;;22.32;86.60
40954;BME280;26686;50.130;8.710;2023-08-12T06:35:28;100253.47;;;22.48;85.90
40954;BME280;26686;50.130;8.710;2023-08-12T06:40:30;100255.75;;;22.51;84.97
40954;BME280;26686;50.130;8.710;2023-08-12T06:45:32;100261.66;;;22.62;85.47
40954;BME280;26686;50.130;8.710;2023-08-12T06:50:33;100252.09;;;22.66;84.76
40954;BME280;26686;50.130;8.710;2023-08-12T06:55:35;100247.31;;;22.74;84.14
40954;BME280;26686;50.130;8.710;2023-08-12T07:00:37;100249.66;;;22.98;83.98
40954;BME280;26686;50.130;8.710;2023-08-12T07:05:38;100250.28;;;23.00;83.06
40954;BME280;26686;50.130;8.710;2023-08-12T07:10:40;100258.72;;;23.18;81.39
40954;BME280;26686;50.130;8.710;2023-08-12T07:15:43;100256.03;;;23.32;78.53
40954;BME280;26686;50.130;8.710;2023-08-12T07:20:45;100252.28;;;23.39;79.43
40954;BME280;26686;50.130;8.710;2023-08-12T07:25:46;100262.09;;;23.60;78.65
40954;BME280;26686;50.130;8.710;2023-08-12T07:30:48;100264.16;;;23.72;76.47
40954;BME280;26686;50.130;8.710;2023-08-12T07:35:51;100260.84;;;23.70;77.70
40954;BME280;26686;50.130;8.710;2023-08-12T07:40:53;100258.94;;;23.77;77.51
40954;BME280;26686;50.130;8.710;2023-08-12T07:45:55;100251.84;;;23.76;76.04
40954;BME280;26686;50.130;8.710;2023-08-12T07:51:09;100258.97;;;23.90;76.06
40954;BME280;26686;50.130;8.710;2023-08-12T07:56:10;100263.53;;;24.10;76.19
40954;BME280;26686;50.130;8.710;2023-08-12T08:01:12;100254.69;;;24.34;75.26
40954;BME280;26686;50.130;8.710;2023-08-12T08:06:14;100255.88;;;24.45;73.73
40954;BME280;26686;50.130;8.710;2023-08-12T08:11:15;100251.31;;;24.39;74.58
40954;BME280;26686;50.130;8.710;2023-08-12T08:16:17;100240.44;;;24.39;74.53
40954;BME280;26686;50.130;8.710;2023-08-12T08:21:19;100240.84;;;24.43;74.63
40954;BME280;26686;50.130;8.710;2023-08-12T08:26:20;100261.75;;;24.49;73.87
40954;BME280;26686;50.130;8.710;2023-08-12T08:31:22;100246.25;;;24.56;74.69
40954;BME280;26686;50.130;8.710;2023-08-12T08:36:23;100244.06;;;24.78;74.43
40954;BME280;26686;50.130;8.710;2023-08-12T08:41:26;100252.72;;;25.00;73.50
40954;BME280;26686;50.130;8.710;2023-08-12T08:46:31;100251.72;;;25.33;72.62
40954;BME280;26686;50.130;8.710;2023-08-12T08:51:32;100249.53;;;25.42;71.98
40954;BME280;26686;50.130;8.710;2023-08-12T08:56:34;100244.13;;;25.35;73.02
40954;BME280;26686;50.130;8.710;2023-08-12T09:01:46;100243.97;;;25.30;72.63
40954;BME280;26686;50.130;8.710;2023-08-12T09:06:48;100243.31;;;25.60;72.22
40954;BME280;26686;50.130;8.710;2023-08-12T09:11:52;100243.81;;;25.75;70.49
40954;BME280;26686;50.130;8.710;2023-08-12T09:16:54;100232.31;;;25.73;70.44
40954;BME280;26686;50.130;8.710;2023-08-12T09:21:58;100221.03;;;25.88;72.38
40954;BME280;26686;50.130;8.710;2023-08-12T09:27:00;100220.63;;;25.85;73.38
40954;BME280;26686;50.130;8.710;2023-08-12T09:32:06;100228.09;;;25.96;71.66
40954;BME280;26686;50.130;8.710;2023-08-12T09:37:12;100245.94;;;26.17;70.46
40954;BME280;26686;50.130;8.710;2023-08-12T09:42:15;100237.34;;;26.14;70.06
40954;BME280;26686;50.130;8.710;2023-08-12T09:47:16;100221.44;;;26.10;69.65
40954;BME280;26686;50.130;8.710;2023-08-12T09:52:18;100187.22;;;26.15;69.52
40954;BME280;26686;50.130;8.710;2023-08-12T09:57:21;100195.09;;;26.23;69.09
40954;BME280;26686;50.130;8.710;2023-08-12T10:02:26;100209.34;;;26.25;69.79
40954;BME280;26686;50.130;8.710;2023-08-12T10:07:28;100206.47;;;26.20;69.42
40954;BME280;26686;50.130;8.710;2023-08-12T10:12:30;100216.63;;;26.13;70.04
40954;BME280;26686;50.130;8.710;2023-08-12T10:17:33;100231.03;;;25.94;70.86
40954;BME280;26686;50.130;8.710;2023-08-12T10:22:44;100237.91;;;25.79;71.97
40954;BME280;26686;50.130;8.710;2023-08-12T10:27:46;100260.00;;;25.70;71.79
40954;BME280;26686;50.130;8.710;2023-08-12T10:32:49;100278.75;;;25.60;73.69
40954;BME280;26686;50.130;8.710;2023-08-12T10:37:53;100312.38;;;25.47;77.60
40954;BME280;26686;50.130;8.710;2023-08-12T10:42:55;100326.19;;;25.14;81.82
40954;BME280;26686;50.130;8.710;2023-08-12T10:48:16;100306.22;;;24.88;87.02
40954;BME280;26686;50.130;8.710;2023-08-12T10:53:32;100258.78;;;24.64;87.38
40954;BME280;26686;50.130;8.710;2023-08-12T10:58:41;100239.56;;;24.52;88.99
40954;BME280;26686;50.130;8.710;2023-08-12T11:03:47;100236.19;;;24.50;90.55
40954;BME280;26686;50.130;8.710;2023-08-12T11:08:52;100235.59;;;24.48;89.76
40954;BME280;26686;50.130;8.710;2023-08-12T11:13:56;100225.78;;;24.40;91.54
40954;BME280;26686;50.130;8.710;2023-08-12T11:18:58;100226.81;;;24.39;92.06
40954;BME280;26686;50.130;8.710;2023-08-12T11:24:01;100214.50;;;24.37;92.60
40954;BME280;26686;50.130;8.710;2023-08-12T11:29:08;100210.34;;;24.27;95.07
40954;BME280;26686;50.130;8.710;2023-08-12T11:34:10;100205.38;;;24.17;94.17
40954;BME280;26686;50.130;8.710;2023-08-12T11:39:12;100195.78;;;24.02;97.28
40954;BME280;26686;50.130;8.710;2023-08-12T11:44:21;100201.22;;;24.02;98.34
40954;BME280;26686;50.130;8.710;2023-08-12T11:49:23;100181.16;;;24.03;97.97
40954;BME280;26686;50.130;8.710;2023-08-12T11:54:24;100181.59;;;23.99;97.18
40954;BME280;26686;50.130;8.710;2023-08-12T11:59:30;100197.94;;;23.86;99.19
40954;BME280;26686;50.130;8.710;2023-08-12T12:04:32;100221.72;;;23.77;100.00
40954;BME280;26686;50.130;8.710;2023-08-12T12:09:33;100241.38;;;23.73;100.00
40954;BME280;26686;50.130;8.710;2023-08-12T12:14:36;100248.09;;;23.63;100.00
40954;BME280;26686;50.130;8.710;2023-08-12T12:19:40;100237.22;;;23.63;100.00
40954;BME280;26686;50.130;8.710;2023-08-12T12:24:45;100247.25;;;23.56;100.00
40954;BME280;26686;50.130;8.710;2023-08-12T12:29:47;100233.91;;;23.48;100.00
40954;BME280;26686;50.130;8.710;2023-08-12T12:34:49;100222.81;;;23.43;99.42
40954;BME280;26686;50.130;8.710;2023-08-12T12:39:50;100212.56;;;23.32;97.17
40954;BME280;26686;50.130;8.710;2023-08-12T12:44:52;100226.16;;;23.45;97.81
40954;BME280;26686;50.130;8.710;2023-08-12T12:49:53;100232.22;;;23.60;96.54
40954;BME280;26686;50.130;8.710;2023-08-12T12:54:55;100234.06;;;23.73;95.61
40954;BME280;26686;50.130;8.710;2023-08-12T12:59:58;100236.78;;;23.80;94.39
40954;BME280;26686;50.130;8.710;2023-08-12T13:05:00;100225.91;;;23.80;93.46
40954;BME280;26686;50.130;8.710;2023-08-12T13:10:01;100226.16;;;23.92;93.02
40954;BME280;26686;50.130;8.710;2023-08-12T13:15:03;100215.41;;;24.17;92.14
40954;BME280;26686;50.130;8.710;2023-08-12T13:20:05;100212.75;;;24.62;91.73
40954;BME280;26686;50.130;8.710;2023-08-12T13:25:07;100221.81;;;24.88;85.08
40954;BME280;26686;50.130;8.710;2023-08-12T13:30:09;100224.25;;;24.96;85.15
40954;BME280;26686;50.130;8.710;2023-08-12T13:35:12;100207.47;;;25.06;85.63
40954;BME280;26686;50.130;8.710;2023-08-12T13:40:14;100214.88;;;25.24;84.83
40954;BME280;26686;50.130;8.710;2023-08-12T13:45:16;100209.78;;;25.34;82.20
40954;BME280;26686;50.130;8.710;2023-08-12T13:50:19;100201.34;;;25.43;81.96
40954;BME280;26686;50.130;8.710;2023-08-12T13:55:21;100201.22;;;25.56;81.75
40954;BME280;26686;50.130;8.710;2023-08-12T14:00:23;100196.53;;;25.63;80.82
40954;BME280;26686;50.130;8.710;2023-08-12T14:05:25;100187.31;;;25.64;80.33
40954;BME280;26686;50.130;8.710;2023-08-12T14:10:27;100186.25;;;25.65;80.90
40954;BME280;26686;50.130;8.710;2023-08-12T14:15:28;100177.16;;;25.71;80.37
40954;BME280;26686;50.130;8.710;2023-08-12T14:20:30;100176.34;;;25.71;80.65
40954;BME280;26686;50.130;8.710;2023-08-12T14:25:31;100172.09;;;25.75;81.42
40954;BME280;26686;50.130;8.710;2023-08-12T14:30:33;100154.91;;;25.74;80.57
40954;BME280;26686;50.130;8.710;2023-08-12T14:35:34;100155.88;;;25.80;80.29
40954;BME280;26686;50.130;8.710;2023-08-12T14:40:38;100148.84;;;25.91;80.25
40954;BME280;26686;50.130;8.710;2023-08-12T14:45:40;100136.88;;;25.92;77.74
40954;BME280;26686;50.130;8.710;2023-08-12T14:50:42;100124.16;;;25.86;77.73
40954;BME280;26686;50.130;8.710;2023-08-12T14:55:44;100118.84;;;25.91;77.86
40954;BME280;26686;50.130;8.710;2023-08-12T15:00:49;100112.03;;;25.82;77.81
40954;BME280;26686;50.130;8.710;2023-08-12T15:05:58;100110.47;;;25.74;77.30
40954;BME280;26686;50.130;8.710;2023-08-12T15:11:00;100118.03;;;25.72;77.87
40954;BME280;26686;50.130;8.710;2023-08-12T15:16:02;100121.44;;;25.67;78.91
40954;BME280;26686;50.130;8.710;2023-08-12T15:21:04;100129.91;;;25.59;78.61
40954;BME280;26686;50.130;8.710;2023-08-12T15:26:05;100140.66;;;25.54;78.78
40954;BME280;26686;50.130;8.710;2023-08-12T15:31:07;100142.75;;;25.52;79.10
40954;BME280;26686;50.130;8.710;2023-08-12T15:36:09;100146.72;;;25.56;79.38
40954;BME280;26686;50.130;8.710;2023-08-12T15:41:15;100144.13;;;25.61;79.47
40954;BME280;26686;50.130;8.710;2023-08-12T15:46:17;100139.53;;;25.62;80.24
40954;BME280;26686;50.130;8.710;2023-08-12T15:51:18;100143.09;;;25.62;80.43
40954;BME280;26686;50.130;8.710;2023-08-12T15:56:20;100135.34;;;25.59;81.35
40954;BME280;26686;50.130;8.710;2023-08-12T16:01:22;100136.41;;;25.58;81.12
40954;BME280;26686;50.130;8.710;2023-08-12T16:06:23;100141.56;;;25.48;79.57
40954;BME280;26686;50.130;8.710;2023-08-12T16:11:25;100147.63;;;25.50;80.39
40954;BME280;26686;50.130;8.710;2023-08-12T16:16:27;100143.84;;;25.51;80.23
40954;BME280;26686;50.130;8.710;2023-08-12T16:21:28;100150.94;;;25.52;80.23
40954;BME280;26686;50.130;8.710;2023-08-12T16:26:30;100142.16;;;25.50;81.32
40954;BME280;26686;50.130;8.710;2023-08-12T16:31:32;100148.53;;;25.44;81.98
40954;BME280;26686;50.130;8.710;2023-08-12T16:36:33;100157.28;;;25.46;82.24
40954;BME280;26686;50.130;8.710;2023-08-12T16:41:35;100148.53;;;25.44;79.32
40954;BME280;26686;50.130;8.710;2023-08-12T16:46:37;100160.47;;;25.43;81.57
40954;BME280;26686;50.130;8.710;2023-08-12T16:51:38;100164.91;;;25.37;82.42
40954;BME280;26686;50.130;8.710;2023-08-12T16:56:40;100159.13;;;25.27;83.34
40954;BME280;26686;50.130;8.710;2023-08-12T17:01:41;100168.38;;;25.19;82.18
40954;BME280;26686;50.130;8.710;2023-08-12T17:06:43;100167.56;;;25.18;83.49
40954;BME280;26686;50.130;8.710;2023-08-12T17:11:44;100162.56;;;25.15;84.77
40954;BME280;26686;50.130;8.710;2023-08-12T17:16:46;100163.81;;;25.13;84.80
40954;BME280;26686;50.130;8.710;2023-08-12T17:21:47;100163.81;;;25.13;85.31
40954;BME280;26686;50.130;8.710;2023-08-12T17:26:50;100153.34;;;25.16;85.23
40954;BME280;26686;50.130;8.710;2023-08-12T17:31:52;100157.66;;;25.24;84.75
40954;BME280;26686;50.130;8.710;2023-08-12T17:36:53;100140.69;;;25.22;84.71
40954;BME280;26686;50.130;8.710;2023-08-12T17:41:55;100151.88;;;25.14;85.44
40954;BME280;26686;50.130;8.710;2023-08-12T17:46:57;100150.88;;;25.08;85.97
40954;BME280;26686;50.130;8.710;2023-08-12T17:51:59;100159.28;;;25.06;86.26
40954;BME280;26686;50.130;8.710;2023-08-12T17:57:02;100162.22;;;25.05;86.49
40954;BME280;26686;50.130;8.710;2023-08-12T18:02:04;100173.09;;;25.05;86.24
40954;BME280;26686;50.130;8.710;2023-08-12T18:07:05;100169.16;;;25.01;84.38
40954;BME280;26686;50.130;8.710;2023-08-12T18:12:07;100179.06;;;24.95;81.83
40954;BME280;26686;50.130;8.710;2023-08-12T18:17:10;100174.47;;;24.89;80.79
40954;BME280;26686;50.130;8.710;2023-08-12T18:22:12;100183.94;;;24.86;79.45
40954;BME280;26686;50.130;8.710;2023-08-12T18:27:13;100189.19;;;24.81;79.24
40954;BME280;26686;50.130;8.710;2023-08-12T18:32:15;100189.63;;;24.78;78.10
40954;BME280;26686;50.130;8.710;2023-08-12T18:37:17;100191.94;;;24.75;78.06
40954;BME280;26686;50.130;8.710;2023-08-12T18:42:18;100196.16;;;24.70;77.05
40954;BME280;26686;50.130;8.710;2023-08-12T18:47:21;100197.63;;;24.66;76.55
40954;BME280;26686;50.130;8.710;2023-08-12T18:52:23;100206.88;;;24.65;76.00
40954;BME280;26686;50.130;8.710;2023-08-12T18:57:25;100201.88;;;24.62;76.13
40954;BME280;26686;50.130;8.710;2023-08-12T19:02:28;100213.19;;;24.59;75.75
40954;BME280;26686;50.130;8.710;2023-08-12T19:07:30;100205.66;;;24.48;76.05
40954;BME280;26686;50.130;8.710;2023-08-12T19:12:32;100222.59;;;24.50;76.60
40954;BME280;26686;50.130;8.710;2023-08-12T19:17:33;100226.38;;;24.49;75.71
40954;BME280;26686;50.130;8.710;2023-08-12T19:22:35;100234.34;;;24.44;76.40
40954;BME280;26686;50.130;8.710;2023-08-12T19:27:37;100231.44;;;24.39;76.64
40954;BME280;26686;50.130;8.710;2023-08-12T19:32:49;100251.09;;;24.41;76.69
40954;BME280;26686;50.130;8.710;2023-08-12T19:37:54;100250.91;;;24.35;76.52
40954;BME280;26686;50.130;8.710;2023-08-12T19:42:56;100255.09;;;24.31;76.38
40954;BME280;26686;50.130;8.710;2023-08-12T19:47:58;100248.03;;;24.24;76.74
40954;BME280;26686;50.130;8.710;2023-08-12T19:52:59;100266.00;;;24.25;77.41
40954;BME280;26686;50.130;8.710;2023-08-12T19:58:01;100276.47;;;24.21;77.01
40954;BME280;26686;50.130;8.710;2023-08-12T20:03:02;100282.97;;;24.20;77.36
40954;BME280;26686;50.130;8.710;2023-08-12T20:08:04;100284.84;;;24.20;76.92
40954;BME280;26686;50.130;8.710;2023-08-12T20:13:07;100288.19;;;24.15;77.64
40954;BME280;26686;50.130;8.710;2023-08-12T20:18:08;100289.03;;;24.15;77.59
40954;BME280;26686;50.130;8.710;2023-08-12T20:23:09;100287.59;;;24.13;77.81
40954;BME280;26686;50.130;8.710;2023-08-12T20:28:11;100277.56;;;24.07;78.13
40954;BME280;26686;50.130;8.710;2023-08-12T20:33:13;100282.34;;;24.05;78.20
40954;BME280;26686;50.130;8.710;2023-08-12T20:38:15;100284.06;;;23.99;78.38
40954;BME280;26686;50.130;8.710;2023-08-12T20:43:19;100289.06;;;23.95;78.99
40954;BME280;26686;50.130;8.710;2023-08-12T20:48:20;100282.34;;;23.78;79.01
40954;BME280;26686;50.130;8.710;2023-08-12T20:53:23;100300.78;;;23.69;80.13
40954;BME280;26686;50.130;8.710;2023-08-12T20:58:24;100301.59;;;23.70;80.32
40954;BME280;26686;50.130;8.710;2023-08-12T21:03:26;100302.84;;;23.74;80.88
40954;BME280;26686;50.130;8.710;2023-08-12T21:08:28;100307.03;;;23.70;81.05
40954;BME280;26686;50.130;8.710;2023-08-12T21:13:29;100305.75;;;23.65;80.53
40954;BME280;26686;50.130;8.710;2023-08-12T21:18:31;100308.91;;;23.62;80.38
40954;BME280;26686;50.130;8.710;2023-08-12T21:23:33;100311.63;;;23.62;80.08
40954;BME280;26686;50.130;8.710;2023-08-12T21:28:35;100314.13;;;23.57;80.61
40954;BME280;26686;50.130;8.710;2023-08-12T21:33:36;100318.31;;;23.53;80.79
40954;BME280;26686;50.130;8.710;2023-08-12T21:38:38;100324.97;;;23.51;81.07
40954;BME280;26686;50.130;8.710;2023-08-12T21:43:39;100321.22;;;23.45;81.59
40954;BME280;26686;50.130;8.710;2023-08-12T21:48:41;100340.63;;;23.42;82.27
40954;BME280;26686;50.130;8.710;2023-08-12T21:53:43;100335.00;;;23.37;81.87
40954;BME280;26686;50.130;8.710;2023-08-12T21:58:46;100343.53;;;23.34;82.46
40954;BME280;26686;50.130;8.710;2023-08-12T22:03:48;100343.34;;;23.28;82.69
40954;BME280;26686;50.130;8.710;2023-08-12T22:08:50;100343.72;;;23.25;83.05
40954;BME280;26686;50.130;8.710;2023-08-12T22:13:51;100339.97;;;23.26;83.55
40954;BME280;26686;50.130;8.710;2023-08-12T22:18:53;100331.22;;;23.24;83.25
40954;BME280;26686;50.130;8.710;2023-08-12T22:23:55;100326.81;;;23.17;84.03
40954;BME280;26686;50.130;8.710;2023-08-12T22:28:56;100324.72;;;23.19;84.10
40954;BME280;26686;50.130;8.710;2023-08-12T22:33:58;100333.69;;;23.19;84.35
40954;BME280;26686;50.130;8.710;2023-08-12T22:39:01;100323.66;;;23.13;84.37
40954;BME280;26686;50.130;8.710;2023-08-12T22:44:03;100308.78;;;23.09;84.81
40954;BME280;26686;50.130;8.710;2023-08-12T22:49:05;100315.50;;;23.13;85.06
40954;BME280;26686;50.130;8.710;2023-08-12T22:54:06;100309.03;;;23.14;84.44
40954;BME280;26686;50.130;8.710;2023-08-12T22:59:08;100310.94;;;23.14;84.52
40954;BME280;26686;50.130;8.710;2023-08-12T23:04:10;100300.06;;;23.14;84.85
40954;BME280;26686;50.130;8.710;2023-08-12T23:09:11;100301.94;;;23.13;85.21
40954;BME280;26686;50.130;8.710;2023-08-12T23:14:13;100313.19;;;23.10;85.02
40954;BME280;26686;50.130;8.710;2023-08-12T23:19:14;100318.63;;;23.10;85.34
40954;BME280;26686;50.130;8.710;2023-08-12T23:24:16;100310.44;;;23.03;85.72
40954;BME280;26686;50.130;8.710;2023-08-12T23:29:17;100310.66;;;23.02;85.74
40954;BME280;26686;50.130;8.710;2023-08-12T23:34:19;100316.69;;;22.97;86.17
40954;BME280;26686;50.130;8.710;2023-08-12T23:39:21;100321.66;;;22.93;86.21
40954;BME280;26686;50.130;8.710;2023-08-12T23:44:23;100327.28;;;22.85;86.32
40954;BME280;26686;50.130;8.710;2023-08-12T23:49:24;100313.47;;;22.73;86.75
40954;BME280;26686;50.130;8.710;2023-08-12T23:54:26;100319.50;;;22.69;86.67
40954;BME280;26686;50.130;8.710;2023-08-12T23:59:27;100314.22;;;22.60;87.54
